sensor_id;sensor_type;location;lat;lon;timestamp;pressure;altitude;pressure_sealevel;temperature;humidity
33185;BME280;19550;42.872;25.494;2023-01-29T00:01:48;96455.47;;;1.27;100.00
33185;BME280;19550;42.872;25.494;2023-01-29T00:04:15;96449.47;;;1.25;100.00
33185;BME280;19550;42.872;25.494;2023-01-29T00:06:41;96434.47;;;1.27;100.00
33185;BME280;19550;42.872;25.494;2023-01-29T00:09:09;96453.06;;;1.30;100.00
33185;BME280;19550;42.872;25.494;2023-01-29T00:11:36;96442.63;;;1.22;100.00
33185;BME280;19550;42.872;25.494;2023-01-29T00:14:03;96452.47;;;1.23;100.00
33185;BME280;19550;42.872;25.494;2023-01-29T00:16:30;96437.59;;;1.09;100.00
33185;BME280;19550;42.872;25.494;2023-01-29T00:18:59;96453.50;;;1.17;100.00
33185;BME280;19550;42.872;25.494;2023-01-29T00:21:26;96451.06;;;1.20;100.00
33185;BME280;19550;42.872;25.494;2023-01-29T00:23:53;96439.25;;;1.10;100.00
33185;BME280;19550;42.872;25.494;2023-01-29T00:26:20;96455.97;;;1.18;100.00
33185;BME280;19550;42.872;25.494;2023-01-29T00:28:47;96452.41;;;1.18;100.00
33185;BME280;19550;42.872;25.494;2023-01-29T00:31:16;96450.72;;;1.12;100.00
33185;BME280;19550;42.872;25.494;2023-01-29T00:33:43;96455.91;;;1.13;100.00
33185;BME280;19550;42.872;25.494;2023-01-29T00:36:13;96456.31;;;1.27;100.00
33185;BME280;19550;42.872;25.494;2023-01-29T00:38:41;96457.25;;;1.43;100.00
33185;BME280;19550;42.872;25.494;2023-01-29T00:41:09;96459.97;;;1.43;100.00
33185;BME280;19550;42.872;25.494;2023-01-29T00:43:54;96457.13;;;1.28;100.00
33185;BME280;19550;42.872;25.494;2023-01-29T00:46:38;96447.78;;;1.18;100.00
33185;BME280;19550;42.872;25.494;2023-01-29T00:49:06;96445.09;;;1.24;100.00
33185;BME280;19550;42.872;25.494;2023-01-29T00:51:36;96459.00;;;1.22;100.00
33185;BME280;19550;42.872;25.494;2023-01-29T00:54:03;96461.47;;;1.24;100.00
33185;BME280;19550;42.872;25.494;2023-01-29T00:56:32;96449.69;;;1.18;100.00
33185;BME280;19550;42.872;25.494;2023-01-29T00:58:59;96443.41;;;1.17;100.00
33185;BME280;19550;42.872;25.494;2023-01-29T01:01:26;96459.56;;;1.24;100.00
33185;BME280;19550;42.872;25.494;2023-01-29T01:04:11;96462.34;;;1.29;100.00
33185;BME280;19550;42.872;25.494;2023-01-29T01:06:40;96461.53;;;1.34;100.00
33185;BME280;19550;42.872;25.494;2023-01-29T01:09:08;96448.06;;;1.22;100.00
33185;BME280;19550;42.872;25.494;2023-01-29T01:11:53;96456.84;;;1.24;100.00
33185;BME280;19550;42.872;25.494;2023-01-29T01:14:20;96454.47;;;1.33;100.00
33185;BME280;19550;42.872;25.494;2023-01-29T01:16:47;96456.63;;;1.31;100.00
33185;BME280;19550;42.872;25.494;2023-01-29T01:19:15;96465.31;;;1.28;100.00
33185;BME280;19550;42.872;25.494;2023-01-29T01:21:43;96459.31;;;1.26;100.00
33185;BME280;19550;42.872;25.494;2023-01-29T01:24:12;96467.19;;;1.22;100.00
33185;BME280;19550;42.872;25.494;2023-01-29T01:26:39;96463.63;;;1.22;100.00
33185;BME280;19550;42.872;25.494;2023-01-29T01:29:06;96464.47;;;1.22;100.00
33185;BME280;19550;42.872;25.494;2023-01-29T01:31:33;96452.63;;;1.11;100.00
33185;BME280;19550;42.872;25.494;2023-01-29T01:34:00;96453.53;;;1.22;100.00
33185;BME280;19550;42.872;25.494;2023-01-29T01:36:27;96451.28;;;1.14;100.00
33185;BME280;19550;42.872;25.494;2023-01-29T01:38:55;96473.81;;;1.31;100.00
33185;BME280;19550;42.872;25.494;2023-01-29T01:41:22;96475.13;;;1.24;100.00
33185;BME280;19550;42.872;25.494;2023-01-29T01:43:51;96472.03;;;1.15;100.00
33185;BME280;19550;42.872;25.494;2023-01-29T01:46:19;96467.38;;;1.10;100.00
33185;BME280;19550;42.872;25.494;2023-01-29T01:48:51;96476.16;;;1.17;100.00
33185;BME280;19550;42.872;25.494;2023-01-29T01:51:21;96468.56;;;1.19;100.00
33185;BME280;19550;42.872;25.494;2023-01-29T01:53:53;96464.38;;;1.12;100.00
33185;BME280;19550;42.872;25.494;2023-01-29T01:56:26;96468.22;;;1.16;100.00
33185;BME280;19550;42.872;25.494;2023-01-29T01:59:05;96470.13;;;1.15;100.00
33185;BME280;19550;42.872;25.494;2023-01-29T02:01:32;96464.78;;;1.26;100.00
33185;BME280;19550;42.872;25.494;2023-01-29T02:04:01;96467.16;;;1.17;100.00
33185;BME280;19550;42.872;25.494;2023-01-29T02:06:47;96459.69;;;1.07;100.00
33185;BME280;19550;42.872;25.494;2023-01-29T02:09:37;96466.34;;;1.22;100.00
33185;BME280;19550;42.872;25.494;2023-01-29T02:12:09;96468.56;;;1.19;100.00
33185;BME280;19550;42.872;25.494;2023-01-29T02:14:38;96470.88;;;1.06;100.00
33185;BME280;19550;42.872;25.494;2023-01-29T02:17:07;96466.28;;;1.11;100.00
33185;BME280;19550;42.872;25.494;2023-01-29T02:19:46;96462.13;;;1.04;100.00
33185;BME280;19550;42.872;25.494;2023-01-29T02:22:26;96468.28;;;0.94;100.00
33185;BME280;19550;42.872;25.494;2023-01-29T02:25:02;96442.63;;;0.90;100.00
33185;BME280;19550;42.872;25.494;2023-01-29T02:27:59;96480.19;;;1.10;100.00
33185;BME280;19550;42.872;25.494;2023-01-29T02:30:32;96472.56;;;1.12;100.00
33185;BME280;19550;42.872;25.494;2023-01-29T02:33:07;96469.00;;;1.11;100.00
33185;BME280;19550;42.872;25.494;2023-01-29T02:35:41;96477.16;;;1.06;100.00
33185;BME280;19550;42.872;25.494;2023-01-29T02:38:14;96477.69;;;1.08;100.00
33185;BME280;19550;42.872;25.494;2023-01-29T02:40:45;96481.84;;;1.11;100.00
33185;BME280;19550;42.872;25.494;2023-01-29T02:43:28;96486.72;;;1.09;100.00
33185;BME280;19550;42.872;25.494;2023-01-29T02:46:01;96473.59;;;1.06;100.00
33185;BME280;19550;42.872;25.494;2023-01-29T02:48:39;96482.63;;;1.06;100.00
33185;BME280;19550;42.872;25.494;2023-01-29T02:51:14;96486.72;;;1.09;100.00
33185;BME280;19550;42.872;25.494;2023-01-29T02:53:49;96487.88;;;1.13;100.00
33185;BME280;19550;42.872;25.494;2023-01-29T02:56:21;96489.25;;;1.15;100.00
33185;BME280;19550;42.872;25.494;2023-01-29T02:58:56;96487.59;;;1.14;100.00
33185;BME280;19550;42.872;25.494;2023-01-29T03:01:29;96480.47;;;1.13;100.00
33185;BME280;19550;42.872;25.494;2023-01-29T03:04:03;96488.41;;;1.15;100.00
33185;BME280;19550;42.872;25.494;2023-01-29T03:06:36;96469.78;;;1.07;100.00
33185;BME280;19550;42.872;25.494;2023-01-29T03:09:08;96484.94;;;1.19;100.00
33185;BME280;19550;42.872;25.494;2023-01-29T03:11:39;96482.78;;;1.27;100.00
33185;BME280;19550;42.872;25.494;2023-01-29T03:14:12;96480.63;;;1.29;100.00
33185;BME280;19550;42.872;25.494;2023-01-29T03:16:44;96477.53;;;1.20;100.00
33185;BME280;19550;42.872;25.494;2023-01-29T03:19:15;96464.94;;;1.14;100.00
33185;BME280;19550;42.872;25.494;2023-01-29T03:21:47;96492.75;;;1.43;100.00
33185;BME280;19550;42.872;25.494;2023-01-29T03:24:24;96489.16;;;1.37;100.00
33185;BME280;19550;42.872;25.494;2023-01-29T03:27:11;96492.19;;;1.41;100.00
33185;BME280;19550;42.872;25.494;2023-01-29T03:30:00;96491.56;;;1.34;100.00
33185;BME280;19550;42.872;25.494;2023-01-29T03:32:45;96493.88;;;1.15;100.00
33185;BME280;19550;42.872;25.494;2023-01-29T03:35:17;96479.59;;;1.08;100.00
33185;BME280;19550;42.872;25.494;2023-01-29T03:37:58;96493.03;;;1.14;100.00
33185;BME280;19550;42.872;25.494;2023-01-29T03:40:27;96487.94;;;1.23;100.00
33185;BME280;19550;42.872;25.494;2023-01-29T03:43:03;96479.72;;;1.18;100.00
33185;BME280;19550;42.872;25.494;2023-01-29T03:45:38;96500.31;;;1.31;100.00
33185;BME280;19550;42.872;25.494;2023-01-29T03:48:13;96487.97;;;1.28;100.00
33185;BME280;19550;42.872;25.494;2023-01-29T03:50:51;96496.16;;;1.28;100.00
33185;BME280;19550;42.872;25.494;2023-01-29T03:53:24;96487.97;;;1.28;100.00
33185;BME280;19550;42.872;25.494;2023-01-29T03:55:56;96495.13;;;1.34;100.00
33185;BME280;19550;42.872;25.494;2023-01-29T03:58:33;96495.84;;;1.19;100.00
33185;BME280;19550;42.872;25.494;2023-01-29T04:01:09;96489.28;;;1.20;100.00
33185;BME280;19550;42.872;25.494;2023-01-29T04:03:38;96501.34;;;1.25;100.00
33185;BME280;19550;42.872;25.494;2023-01-29T04:06:10;96496.72;;;1.25;100.00
33185;BME280;19550;42.872;25.494;2023-01-29T04:08:44;96498.56;;;1.19;100.00
33185;BME280;19550;42.872;25.494;2023-01-29T04:11:15;96482.75;;;1.22;100.00
33185;BME280;19550;42.872;25.494;2023-01-29T04:13:44;96494.41;;;1.12;100.00
33185;BME280;19550;42.872;25.494;2023-01-29T04:16:16;96500.72;;;1.17;100.00
33185;BME280;19550;42.872;25.494;2023-01-29T04:18:45;96489.69;;;1.07;100.00
33185;BME280;19550;42.872;25.494;2023-01-29T04:21:12;96497.97;;;1.12;100.00
33185;BME280;19550;42.872;25.494;2023-01-29T04:23:39;96510.69;;;1.34;100.00
33185;BME280;19550;42.872;25.494;2023-01-29T04:26:28;96506.56;;;1.26;100.00
33185;BME280;19550;42.872;25.494;2023-01-29T04:29:08;96488.13;;;1.11;100.00
33185;BME280;19550;42.872;25.494;2023-01-29T04:31:46;96516.66;;;1.26;100.00
33185;BME280;19550;42.872;25.494;2023-01-29T04:34:22;96515.25;;;1.23;100.00
33185;BME280;19550;42.872;25.494;2023-01-29T04:36:57;96501.56;;;1.18;100.00
33185;BME280;19550;42.872;25.494;2023-01-29T04:39:32;96508.97;;;1.23;100.00
33185;BME280;19550;42.872;25.494;2023-01-29T04:42:05;96507.22;;;1.11;100.00
33185;BME280;19550;42.872;25.494;2023-01-29T04:44:39;96514.84;;;1.09;100.00
33185;BME280;19550;42.872;25.494;2023-01-29T04:47:18;96519.47;;;1.09;100.00
33185;BME280;19550;42.872;25.494;2023-01-29T04:49:52;96510.50;;;1.13;100.00
33185;BME280;19550;42.872;25.494;2023-01-29T04:52:32;96520.41;;;1.19;100.00
33185;BME280;19550;42.872;25.494;2023-01-29T04:55:07;96519.25;;;1.15;100.00
33185;BME280;19550;42.872;25.494;2023-01-29T04:57:40;96495.69;;;1.04;100.00
33185;BME280;19550;42.872;25.494;2023-01-29T05:00:13;96532.44;;;1.24;100.00
33185;BME280;19550;42.872;25.494;2023-01-29T05:02:44;96529.69;;;1.18;100.00
33185;BME280;19550;42.872;25.494;2023-01-29T05:05:13;96526.88;;;1.13;100.00
33185;BME280;19550;42.872;25.494;2023-01-29T05:07:43;96533.22;;;1.19;100.00
33185;BME280;19550;42.872;25.494;2023-01-29T05:10:12;96502.09;;;0.93;100.00
33185;BME280;19550;42.872;25.494;2023-01-29T05:12:42;96517.28;;;1.06;100.00
33185;BME280;19550;42.872;25.494;2023-01-29T05:15:13;96543.00;;;1.15;100.00
33185;BME280;19550;42.872;25.494;2023-01-29T05:17:42;96530.09;;;1.05;100.00
33185;BME280;19550;42.872;25.494;2023-01-29T05:20:11;96544.28;;;1.07;100.00
33185;BME280;19550;42.872;25.494;2023-01-29T05:22:40;96543.53;;;1.12;100.00
33185;BME280;19550;42.872;25.494;2023-01-29T05:25:11;96544.06;;;1.14;100.00
33185;BME280;19550;42.872;25.494;2023-01-29T05:27:45;96539.34;;;1.04;100.00
33185;BME280;19550;42.872;25.494;2023-01-29T05:30:37;96544.59;;;1.11;100.00
33185;BME280;19550;42.872;25.494;2023-01-29T05:33:11;96544.41;;;1.17;100.00
33185;BME280;19550;42.872;25.494;2023-01-29T05:35:40;96548.78;;;1.18;100.00
33185;BME280;19550;42.872;25.494;2023-01-29T05:38:07;96541.69;;;1.17;100.00
33185;BME280;19550;42.872;25.494;2023-01-29T05:40:34;96550.91;;;1.11;100.00
33185;BME280;19550;42.872;25.494;2023-01-29T05:43:01;96558.75;;;1.08;100.00
33185;BME280;19550;42.872;25.494;2023-01-29T05:45:28;96561.28;;;1.14;100.00
33185;BME280;19550;42.872;25.494;2023-01-29T05:47:55;96568.31;;;1.05;100.00
33185;BME280;19550;42.872;25.494;2023-01-29T05:50:23;96575.41;;;1.06;100.00
33185;BME280;19550;42.872;25.494;2023-01-29T05:52:56;96575.97;;;1.08;100.00
33185;BME280;19550;42.872;25.494;2023-01-29T05:55:24;96568.94;;;1.12;100.00
33185;BME280;19550;42.872;25.494;2023-01-29T05:57:51;96582.66;;;1.23;100.00
33185;BME280;19550;42.872;25.494;2023-01-29T06:00:18;96575.81;;;1.20;100.00
33185;BME280;19550;42.872;25.494;2023-01-29T06:02:45;96592.72;;;1.17;100.00
33185;BME280;19550;42.872;25.494;2023-01-29T06:05:12;96580.13;;;1.16;100.00
33185;BME280;19550;42.872;25.494;2023-01-29T06:07:39;96592.94;;;1.37;100.00
33185;BME280;19550;42.872;25.494;2023-01-29T06:10:12;96596.38;;;1.28;100.00
33185;BME280;19550;42.872;25.494;2023-01-29T06:12:41;96576.00;;;1.13;100.00
33185;BME280;19550;42.872;25.494;2023-01-29T06:15:08;96595.03;;;1.30;100.00
33185;BME280;19550;42.872;25.494;2023-01-29T06:17:35;96596.94;;;1.30;100.00
33185;BME280;19550;42.872;25.494;2023-01-29T06:20:03;96589.78;;;1.24;100.00
33185;BME280;19550;42.872;25.494;2023-01-29T06:22:32;96604.09;;;1.36;100.00
33185;BME280;19550;42.872;25.494;2023-01-29T06:25:01;96593.63;;;1.28;100.00
33185;BME280;19550;42.872;25.494;2023-01-29T06:27:29;96599.97;;;1.33;100.00
33185;BME280;19550;42.872;25.494;2023-01-29T06:29:56;96618.94;;;1.45;100.00
33185;BME280;19550;42.872;25.494;2023-01-29T06:32:23;96592.34;;;1.35;100.00
33185;BME280;19550;42.872;25.494;2023-01-29T06:34:50;96614.44;;;1.34;100.00
33185;BME280;19550;42.872;25.494;2023-01-29T06:37:18;96580.97;;;1.16;100.00
33185;BME280;19550;42.872;25.494;2023-01-29T06:39:45;96614.53;;;1.39;100.00
33185;BME280;19550;42.872;25.494;2023-01-29T06:42:11;96613.31;;;1.56;100.00
33185;BME280;19550;42.872;25.494;2023-01-29T06:44:40;96617.75;;;1.36;100.00
33185;BME280;19550;42.872;25.494;2023-01-29T06:47:07;96617.25;;;1.39;100.00
33185;BME280;19550;42.872;25.494;2023-01-29T06:49:34;96619.97;;;1.39;100.00
33185;BME280;19550;42.872;25.494;2023-01-29T06:52:00;96624.91;;;1.42;100.00
33185;BME280;19550;42.872;25.494;2023-01-29T06:54:27;96637.28;;;1.49;100.00
33185;BME280;19550;42.872;25.494;2023-01-29T06:56:55;96620.28;;;1.42;100.00
33185;BME280;19550;42.872;25.494;2023-01-29T06:59:22;96627.56;;;1.58;100.00
33185;BME280;19550;42.872;25.494;2023-01-29T07:01:50;96635.06;;;1.73;100.00
33185;BME280;19550;42.872;25.494;2023-01-29T07:04:17;96632.84;;;1.70;100.00
33185;BME280;19550;42.872;25.494;2023-01-29T07:06:44;96643.19;;;1.95;100.00
33185;BME280;19550;42.872;25.494;2023-01-29T07:09:11;96646.94;;;1.89;100.00
33185;BME280;19550;42.872;25.494;2023-01-29T07:11:39;96638.72;;;1.84;100.00
33185;BME280;19550;42.872;25.494;2023-01-29T07:14:06;96647.22;;;1.87;100.00
33185;BME280;19550;42.872;25.494;2023-01-29T07:16:33;96657.53;;;1.80;100.00
33185;BME280;19550;42.872;25.494;2023-01-29T07:19:01;96653.75;;;1.86;100.00
33185;BME280;19550;42.872;25.494;2023-01-29T07:21:28;96638.94;;;1.77;100.00
33185;BME280;19550;42.872;25.494;2023-01-29T07:23:56;96640.50;;;1.73;100.00
33185;BME280;19550;42.872;25.494;2023-01-29T07:26:22;96665.69;;;1.75;100.00
33185;BME280;19550;42.872;25.494;2023-01-29T07:28:49;96644.84;;;1.69;100.00
33185;BME280;19550;42.872;25.494;2023-01-29T07:31:16;96660.31;;;1.85;100.00
33185;BME280;19550;42.872;25.494;2023-01-29T07:33:43;96665.09;;;1.73;100.00
33185;BME280;19550;42.872;25.494;2023-01-29T07:36:13;96656.47;;;1.86;100.00
33185;BME280;19550;42.872;25.494;2023-01-29T07:38:40;96659.72;;;1.78;100.00
33185;BME280;19550;42.872;25.494;2023-01-29T07:41:08;96647.97;;;1.78;100.00
33185;BME280;19550;42.872;25.494;2023-01-29T07:43:35;96642.44;;;1.73;100.00
33185;BME280;19550;42.872;25.494;2023-01-29T07:46:03;96662.75;;;1.82;100.00
33185;BME280;19550;42.872;25.494;2023-01-29T07:48:30;96657.53;;;1.80;100.00
33185;BME280;19550;42.872;25.494;2023-01-29T07:50:57;96665.19;;;1.78;100.00
33185;BME280;19550;42.872;25.494;2023-01-29T07:53:26;96658.53;;;1.69;100.00
33185;BME280;19550;42.872;25.494;2023-01-29T07:55:53;96681.66;;;1.62;100.00
33185;BME280;19550;42.872;25.494;2023-01-29T07:58:20;96677.06;;;1.67;100.00
33185;BME280;19550;42.872;25.494;2023-01-29T08:00:47;96682.84;;;1.71;100.00
33185;BME280;19550;42.872;25.494;2023-01-29T08:03:15;96663.81;;;1.54;100.00
33185;BME280;19550;42.872;25.494;2023-01-29T08:05:43;96684.34;;;1.56;100.00
33185;BME280;19550;42.872;25.494;2023-01-29T08:08:10;96688.53;;;1.64;100.00
33185;BME280;19550;42.872;25.494;2023-01-29T08:10:39;96689.47;;;1.53;100.00
33185;BME280;19550;42.872;25.494;2023-01-29T08:13:06;96695.84;;;1.58;100.00
33185;BME280;19550;42.872;25.494;2023-01-29T08:15:34;96704.38;;;1.67;100.00
33185;BME280;19550;42.872;25.494;2023-01-29T08:18:02;96698.66;;;1.69;100.00
33185;BME280;19550;42.872;25.494;2023-01-29T08:20:29;96697.69;;;1.80;100.00
33185;BME280;19550;42.872;25.494;2023-01-29T08:23:00;96692.72;;;1.72;100.00
33185;BME280;19550;42.872;25.494;2023-01-29T08:25:29;96702.94;;;1.86;100.00
33185;BME280;19550;42.872;25.494;2023-01-29T08:27:58;96696.16;;;1.89;100.00
33185;BME280;19550;42.872;25.494;2023-01-29T08:30:26;96699.78;;;1.99;100.00
33185;BME280;19550;42.872;25.494;2023-01-29T08:32:54;96708.81;;;2.00;100.00
33185;BME280;19550;42.872;25.494;2023-01-29T08:35:21;96709.03;;;1.93;100.00
33185;BME280;19550;42.872;25.494;2023-01-29T08:37:54;96705.63;;;1.81;100.00
33185;BME280;19550;42.872;25.494;2023-01-29T08:40:23;96708.94;;;1.83;100.00
33185;BME280;19550;42.872;25.494;2023-01-29T08:42:51;96712.03;;;1.92;100.00
33185;BME280;19550;42.872;25.494;2023-01-29T08:45:19;96712.88;;;1.92;100.00
33185;BME280;19550;42.872;25.494;2023-01-29T08:47:47;96712.28;;;1.90;100.00
33185;BME280;19550;42.872;25.494;2023-01-29T08:50:15;96711.97;;;1.87;100.00
33185;BME280;19550;42.872;25.494;2023-01-29T08:52:42;96716.19;;;1.99;100.00
33185;BME280;19550;42.872;25.494;2023-01-29T08:55:10;96715.13;;;2.00;100.00
33185;BME280;19550;42.872;25.494;2023-01-29T08:57:38;96712.38;;;2.00;100.00
33185;BME280;19550;42.872;25.494;2023-01-29T09:00:07;96722.03;;;2.08;100.00
33185;BME280;19550;42.872;25.494;2023-01-29T09:02:36;96713.31;;;2.11;100.00
33185;BME280;19550;42.872;25.494;2023-01-29T09:05:04;96718.00;;;2.16;100.00
33185;BME280;19550;42.872;25.494;2023-01-29T09:07:32;96704.06;;;2.17;100.00
33185;BME280;19550;42.872;25.494;2023-01-29T09:09:59;96696.91;;;2.11;100.00
33185;BME280;19550;42.872;25.494;2023-01-29T09:12:26;96683.94;;;1.96;100.00
33185;BME280;19550;42.872;25.494;2023-01-29T09:14:53;96720.78;;;2.21;100.00
33185;BME280;19550;42.872;25.494;2023-01-29T09:17:20;96704.38;;;2.21;100.00
33185;BME280;19550;42.872;25.494;2023-01-29T09:19:50;96696.38;;;2.14;100.00
33185;BME280;19550;42.872;25.494;2023-01-29T09:22:17;96703.50;;;2.15;100.00
33185;BME280;19550;42.872;25.494;2023-01-29T09:24:45;96710.91;;;2.20;100.00
33185;BME280;19550;42.872;25.494;2023-01-29T09:27:12;96701.03;;;2.14;100.00
33185;BME280;19550;42.872;25.494;2023-01-29T09:29:39;96701.34;;;2.17;100.00
33185;BME280;19550;42.872;25.494;2023-01-29T09:32:07;96688.94;;;2.05;100.00
33185;BME280;19550;42.872;25.494;2023-01-29T09:34:34;96704.78;;;2.08;100.00
33185;BME280;19550;42.872;25.494;2023-01-29T09:37:03;96697.75;;;2.12;100.00
33185;BME280;19550;42.872;25.494;2023-01-29T09:39:31;96699.91;;;2.10;100.00
33185;BME280;19550;42.872;25.494;2023-01-29T09:42:03;96700.94;;;2.04;100.00
33185;BME280;19550;42.872;25.494;2023-01-29T09:44:47;96699.06;;;2.09;100.00
33185;BME280;19550;42.872;25.494;2023-01-29T09:47:18;96699.03;;;2.04;100.00
33185;BME280;19550;42.872;25.494;2023-01-29T09:49:48;96692.41;;;2.00;100.00
33185;BME280;19550;42.872;25.494;2023-01-29T09:52:21;96689.75;;;2.05;100.00
33185;BME280;19550;42.872;25.494;2023-01-29T09:54:56;96693.88;;;2.08;100.00
33185;BME280;19550;42.872;25.494;2023-01-29T09:57:29;96692.53;;;2.10;100.00
33185;BME280;19550;42.872;25.494;2023-01-29T09:59:59;96697.38;;;2.03;100.00
33185;BME280;19550;42.872;25.494;2023-01-29T10:02:44;96690.91;;;2.14;100.00
33185;BME280;19550;42.872;25.494;2023-01-29T10:05:28;96696.56;;;2.03;100.00
33185;BME280;19550;42.872;25.494;2023-01-29T10:08:17;96697.06;;;1.99;100.00
33185;BME280;19550;42.872;25.494;2023-01-29T10:10:57;96690.50;;;2.00;100.00
33185;BME280;19550;42.872;25.494;2023-01-29T10:13:35;96684.31;;;2.10;100.00
33185;BME280;19550;42.872;25.494;2023-01-29T10:16:26;96684.75;;;1.97;100.00
33185;BME280;19550;42.872;25.494;2023-01-29T10:19:19;96676.84;;;2.00;100.00
33185;BME280;19550;42.872;25.494;2023-01-29T10:22:07;96674.25;;;2.16;100.00
33185;BME280;19550;42.872;25.494;2023-01-29T10:24:45;96670.91;;;2.09;100.00
33185;BME280;19550;42.872;25.494;2023-01-29T10:27:21;96672.56;;;2.10;100.00
33185;BME280;19550;42.872;25.494;2023-01-29T10:29:51;96682.59;;;1.99;100.00
33185;BME280;19550;42.872;25.494;2023-01-29T10:32:20;96671.88;;;1.92;100.00
33185;BME280;19550;42.872;25.494;2023-01-29T10:34:52;96679.78;;;1.94;100.00
33185;BME280;19550;42.872;25.494;2023-01-29T10:37:23;96669.91;;;1.88;100.00
33185;BME280;19550;42.872;25.494;2023-01-29T10:39:59;96671.03;;;1.92;100.00
33185;BME280;19550;42.872;25.494;2023-01-29T10:42:29;96671.56;;;1.89;100.00
33185;BME280;19550;42.872;25.494;2023-01-29T10:45:18;96665.28;;;1.93;100.00
33185;BME280;19550;42.872;25.494;2023-01-29T10:48:03;96658.69;;;1.84;100.00
33185;BME280;19550;42.872;25.494;2023-01-29T10:50:43;96666.34;;;1.87;100.00
33185;BME280;19550;42.872;25.494;2023-01-29T10:56:14;96663.13;;;1.64;100.00
33185;BME280;19550;42.872;25.494;2023-01-29T10:58:49;96654.38;;;1.67;100.00
33185;BME280;19550;42.872;25.494;2023-01-29T11:01:17;96653.31;;;1.68;100.00
33185;BME280;19550;42.872;25.494;2023-01-29T11:03:54;96650.13;;;1.76;100.00
33185;BME280;19550;42.872;25.494;2023-01-29T11:06:23;96644.84;;;1.69;100.00
33185;BME280;19550;42.872;25.494;2023-01-29T11:08:54;96644.66;;;1.76;100.00
33185;BME280;19550;42.872;25.494;2023-01-29T11:11:29;96638.34;;;1.75;100.00
33185;BME280;19550;42.872;25.494;2023-01-29T11:13:59;96640.31;;;1.80;100.00
33185;BME280;19550;42.872;25.494;2023-01-29T11:16:39;96632.06;;;1.75;100.00
33185;BME280;19550;42.872;25.494;2023-01-29T11:19:06;96635.78;;;1.90;100.00
33185;BME280;19550;42.872;25.494;2023-01-29T11:21:49;96634.41;;;1.93;100.00
33185;BME280;19550;42.872;25.494;2023-01-29T11:24:17;96641.06;;;2.02;100.00
33185;BME280;19550;42.872;25.494;2023-01-29T11:26:47;96634.19;;;1.99;100.00
33185;BME280;19550;42.872;25.494;2023-01-29T11:29:31;96627.59;;;1.95;100.00
33185;BME280;19550;42.872;25.494;2023-01-29T11:32:01;96626.31;;;2.03;100.00
33185;BME280;19550;42.872;25.494;2023-01-29T11:34:28;96618.81;;;1.88;100.00
33185;BME280;19550;42.872;25.494;2023-01-29T11:36:57;96619.38;;;1.90;100.00
33185;BME280;19550;42.872;25.494;2023-01-29T11:39:26;96617.69;;;1.84;100.00
33185;BME280;19550;42.872;25.494;2023-01-29T11:41:57;96619.28;;;1.80;100.00
33185;BME280;19550;42.872;25.494;2023-01-29T11:44:30;96616.59;;;1.85;100.00
33185;BME280;19550;42.872;25.494;2023-01-29T11:47:11;96618.22;;;1.86;100.00
33185;BME280;19550;42.872;25.494;2023-01-29T11:49:45;96618.22;;;1.86;100.00
33185;BME280;19550;42.872;25.494;2023-01-29T11:52:14;96608.13;;;1.87;100.00
33185;BME280;19550;42.872;25.494;2023-01-29T11:54:44;96611.38;;;1.84;100.00
33185;BME280;19550;42.872;25.494;2023-01-29T11:57:25;96610.53;;;1.78;100.00
33185;BME280;19550;42.872;25.494;2023-01-29T11:59:55;96611.34;;;1.79;100.00
33185;BME280;19550;42.872;25.494;2023-01-29T12:02:31;96593.94;;;1.58;100.00
33185;BME280;19550;42.872;25.494;2023-01-29T12:05:03;96609.94;;;1.76;100.00
33185;BME280;19550;42.872;25.494;2023-01-29T12:07:31;96601.41;;;1.68;100.00
33185;BME280;19550;42.872;25.494;2023-01-29T12:09:59;96602.38;;;1.83;100.00
33185;BME280;19550;42.872;25.494;2023-01-29T12:12:35;96607.69;;;2.00;100.00
33185;BME280;19550;42.872;25.494;2023-01-29T12:15:24;96609.38;;;2.06;100.00
33185;BME280;19550;42.872;25.494;2023-01-29T12:17:57;96604.72;;;2.07;100.00
33185;BME280;19550;42.872;25.494;2023-01-29T12:20:30;96603.34;;;2.04;100.00
33185;BME280;19550;42.872;25.494;2023-01-29T12:23:05;96595.63;;;1.96;100.00
33185;BME280;19550;42.872;25.494;2023-01-29T12:25:42;96609.06;;;1.97;100.00
33185;BME280;19550;42.872;25.494;2023-01-29T12:28:30;96607.44;;;2.02;100.00
33185;BME280;19550;42.872;25.494;2023-01-29T12:31:10;96608.94;;;1.87;100.00
33185;BME280;19550;42.872;25.494;2023-01-29T12:33:45;96612.25;;;1.89;100.00
33185;BME280;19550;42.872;25.494;2023-01-29T12:36:20;96602.00;;;1.75;100.00
33185;BME280;19550;42.872;25.494;2023-01-29T12:38:49;96608.88;;;1.77;100.00
33185;BME280;19550;42.872;25.494;2023-01-29T12:41:32;96611.84;;;1.76;100.00
33185;BME280;19550;42.872;25.494;2023-01-29T12:44:06;96607.19;;;1.71;100.00
33185;BME280;19550;42.872;25.494;2023-01-29T12:46:40;96612.47;;;1.83;100.00
33185;BME280;19550;42.872;25.494;2023-01-29T12:49:13;96619.34;;;1.85;100.00
33185;BME280;19550;42.872;25.494;2023-01-29T12:51:47;96619.13;;;1.92;100.00
33185;BME280;19550;42.872;25.494;2023-01-29T12:54:22;96619.63;;;1.89;100.00
33185;BME280;19550;42.872;25.494;2023-01-29T12:56:57;96622.56;;;1.82;100.00
33185;BME280;19550;42.872;25.494;2023-01-29T12:59:30;96619.97;;;1.97;100.00
33185;BME280;19550;42.872;25.494;2023-01-29T13:02:03;96619.72;;;1.99;100.00
33185;BME280;19550;42.872;25.494;2023-01-29T13:04:37;96616.72;;;2.00;100.00
33185;BME280;19550;42.872;25.494;2023-01-29T13:07:10;96617.88;;;2.10;100.00
33185;BME280;19550;42.872;25.494;2023-01-29T13:09:44;96615.97;;;2.10;100.00
33185;BME280;19550;42.872;25.494;2023-01-29T13:12:14;96620.66;;;2.15;100.00
33185;BME280;19550;42.872;25.494;2023-01-29T13:14:47;96610.78;;;2.14;100.00
33185;BME280;19550;42.872;25.494;2023-01-29T13:17:20;96627.56;;;2.22;100.00